createdAt,value
2017-12-25T00:00:23.017Z,1017.12
2017-12-25T00:00:48.597Z,1017.14
2017-12-25T00:01:14.168Z,1017.13
2017-12-25T00:01:39.830Z,1017.14
2017-12-25T00:02:05.384Z,1017.13
2017-12-25T00:02:30.951Z,1017.06
2017-12-25T00:02:56.572Z,1017.06
2017-12-25T00:03:22.147Z,1017.02
2017-12-25T00:03:47.682Z,1017.06
2017-12-25T00:04:13.277Z,1017.12
2017-12-25T00:04:38.846Z,1017.12
2017-12-25T00:05:04.428Z,1017.11
2017-12-25T00:05:30.053Z,1017.12
2017-12-25T00:05:55.601Z,1017.15
2017-12-25T00:06:21.153Z,1017.17
2017-12-25T00:06:46.758Z,1017.16
2017-12-25T00:07:12.322Z,1017.18
2017-12-25T00:07:37.903Z,1017.07
2017-12-25T00:08:03.478Z,1017.14
2017-12-25T00:08:29.045Z,1017.13
2017-12-25T00:08:54.652Z,1017.18
2017-12-25T00:09:20.219Z,1017.15
2017-12-25T00:09:45.793Z,1017.19
2017-12-25T00:10:11.376Z,1017.19
2017-12-25T00:10:36.972Z,1017.15
2017-12-25T00:11:02.529Z,1017.22
2017-12-25T00:11:28.113Z,1017.21
2017-12-25T00:11:53.694Z,1017.18
2017-12-25T00:12:19.261Z,1017.16
2017-12-25T00:12:44.837Z,1017.23
2017-12-25T00:13:10.394Z,1017.21
2017-12-25T00:13:35.976Z,1017.22
2017-12-25T00:14:01.540Z,1017.22
2017-12-25T00:14:27.095Z,1017.18
2017-12-25T00:14:52.643Z,1017.17
2017-12-25T00:15:18.190Z,1017.21
2017-12-25T00:15:43.830Z,1017.14
2017-12-25T00:16:09.400Z,1017.18
2017-12-25T00:16:34.979Z,1017.16
2017-12-25T00:17:00.553Z,1017.18
2017-12-25T00:17:26.144Z,1017.18
2017-12-25T00:17:51.680Z,1017.23
2017-12-25T00:18:17.256Z,1017.17
2017-12-25T00:18:42.847Z,1017.2
2017-12-25T00:19:08.424Z,1017.21
2017-12-25T00:19:33.967Z,1017.14
2017-12-25T00:19:59.542Z,1017.21
2017-12-25T00:20:25.086Z,1017.16
2017-12-25T00:20:50.815Z,1017.06
2017-12-25T00:21:16.378Z,1017.14
2017-12-25T00:21:41.943Z,1017.08
2017-12-25T00:22:07.508Z,1017.17
2017-12-25T00:22:33.064Z,1017.12
2017-12-25T00:22:58.625Z,1017.14
2017-12-25T00:23:24.185Z,1017.1
2017-12-25T00:23:49.809Z,1017.06
2017-12-25T00:24:15.362Z,1017.11
2017-12-25T00:24:40.905Z,1017.09
2017-12-25T00:25:06.465Z,1017.05
2017-12-25T00:25:32.038Z,1017.04
2017-12-25T00:25:57.679Z,1017.11
2017-12-25T00:26:23.291Z,1016.99
2017-12-25T00:26:48.864Z,1017.03
2017-12-25T00:27:14.436Z,1017.06
2017-12-25T00:27:40.004Z,1017.03
2017-12-25T00:28:05.573Z,1017.02
2017-12-25T00:28:31.139Z,1016.99
2017-12-25T00:28:56.735Z,1017.02
2017-12-25T00:29:22.350Z,1017.04
2017-12-25T00:29:47.925Z,1017.08
2017-12-25T00:30:13.483Z,1017.05
2017-12-25T00:30:39.055Z,1017.07
2017-12-25T00:31:04.620Z,1017.07
2017-12-25T00:31:30.205Z,1017.06
2017-12-25T00:31:55.753Z,1017.03
2017-12-25T00:32:21.304Z,1017.03
2017-12-25T00:32:46.923Z,1017
2017-12-25T00:34:01.261Z,1016.99
2017-12-25T00:34:26.817Z,1017.08
2017-12-25T00:34:52.384Z,1017.05
2017-12-25T00:35:17.951Z,1017.07
2017-12-25T00:35:43.560Z,1017.02
2017-12-25T00:36:09.098Z,1017.05
2017-12-25T00:36:34.723Z,1017.06
2017-12-25T00:37:00.306Z,1016.97
2017-12-25T00:37:25.981Z,1016.95
2017-12-25T00:37:51.544Z,1017.01
2017-12-25T00:38:17.096Z,1016.98
2017-12-25T00:38:42.704Z,1017.04
2017-12-25T00:39:08.260Z,1017.02
2017-12-25T00:39:33.820Z,1017.08
2017-12-25T00:39:59.442Z,1017.06
2017-12-25T00:40:24.991Z,1017.05
2017-12-25T00:40:50.562Z,1017.02
2017-12-25T00:41:16.162Z,1017.09
2017-12-25T00:41:41.712Z,1017.09
2017-12-25T00:42:07.255Z,1017.07
2017-12-25T00:42:32.835Z,1017.06
2017-12-25T00:42:58.386Z,1017
2017-12-25T00:43:23.941Z,1017.05
2017-12-25T00:43:49.601Z,1016.99
2017-12-25T00:44:15.163Z,1017
2017-12-25T00:44:40.768Z,1016.98
2017-12-25T00:45:06.322Z,1016.98
2017-12-25T00:45:31.970Z,1016.94
2017-12-25T00:45:57.507Z,1017.05
2017-12-25T00:46:23.081Z,1017.04
2017-12-25T00:46:48.665Z,1017.06
2017-12-25T00:47:14.239Z,1017.06
2017-12-25T00:47:40.099Z,1017.06
2017-12-25T00:48:05.657Z,1017.04
2017-12-25T00:48:31.210Z,1016.99
2017-12-25T00:48:56.760Z,1016.97
2017-12-25T00:49:22.339Z,1016.99
2017-12-25T00:49:47.954Z,1017.02
2017-12-25T00:50:13.540Z,1017.05
2017-12-25T00:50:39.142Z,1017
2017-12-25T00:51:04.712Z,1017.03
2017-12-25T00:51:30.265Z,1017.02
2017-12-25T00:51:55.838Z,1017.06
2017-12-25T00:52:21.487Z,1017.04
2017-12-25T00:52:47.038Z,1017.08
2017-12-25T00:53:12.665Z,1017.05
2017-12-25T00:53:38.306Z,1016.99
2017-12-25T00:54:03.970Z,1016.95
2017-12-25T00:54:29.522Z,1017.03
2017-12-25T00:54:55.074Z,1017.09
2017-12-25T00:55:20.669Z,1017.06
2017-12-25T00:55:46.241Z,1017.02
2017-12-25T00:56:11.786Z,1016.99
2017-12-25T00:56:37.353Z,1016.98
2017-12-25T00:57:02.941Z,1016.99
2017-12-25T00:57:28.502Z,1017.03
2017-12-25T00:57:54.088Z,1017.03
2017-12-25T00:58:19.631Z,1017.04
2017-12-25T00:58:45.186Z,1017
2017-12-25T00:59:10.770Z,1017
2017-12-25T00:59:36.348Z,1016.99
2017-12-25T01:00:01.906Z,1016.98
2017-12-25T01:00:27.544Z,1016.96
2017-12-25T01:00:53.086Z,1017.07
2017-12-25T01:01:18.659Z,1016.97
2017-12-25T01:01:44.204Z,1016.96
2017-12-25T01:02:09.800Z,1016.98
2017-12-25T01:02:35.359Z,1017.01
2017-12-25T01:03:00.970Z,1017.03
2017-12-25T01:03:26.512Z,1017.02
2017-12-25T01:03:52.108Z,1016.96
2017-12-25T01:04:17.677Z,1016.97
2017-12-25T01:04:43.222Z,1016.97
2017-12-25T01:05:08.788Z,1016.93
2017-12-25T01:05:34.469Z,1016.9
2017-12-25T01:06:00.104Z,1016.95
2017-12-25T01:06:25.668Z,1016.98
2017-12-25T01:06:51.273Z,1016.97
2017-12-25T01:07:16.839Z,1016.95
2017-12-25T01:07:42.400Z,1017.03
2017-12-25T01:08:07.966Z,1017.01
2017-12-25T01:08:33.506Z,1016.96
2017-12-25T01:08:59.090Z,1016.94
2017-12-25T01:09:24.660Z,1016.9
2017-12-25T01:09:50.231Z,1017.01
2017-12-25T01:10:15.800Z,1016.95
2017-12-25T01:10:41.385Z,1017.01
2017-12-25T01:11:06.964Z,1017
2017-12-25T01:11:32.512Z,1017
2017-12-25T01:11:58.073Z,1016.96
2017-12-25T01:12:23.675Z,1016.93
2017-12-25T01:12:49.229Z,1016.92
2017-12-25T01:13:14.786Z,1016.98
2017-12-25T01:13:40.349Z,1017.01
2017-12-25T01:14:05.924Z,1016.97
2017-12-25T01:14:31.474Z,1016.97
2017-12-25T01:14:57.035Z,1017.01
2017-12-25T01:15:22.616Z,1016.97
2017-12-25T01:15:48.288Z,1017.01
2017-12-25T01:16:13.836Z,1017.02
2017-12-25T01:16:39.420Z,1017.06
2017-12-25T01:17:04.974Z,1017.02
2017-12-25T01:17:30.538Z,1016.98
2017-12-25T01:17:56.100Z,1016.98
2017-12-25T01:18:21.720Z,1017.03
2017-12-25T01:18:47.255Z,1017.01
2017-12-25T01:19:12.832Z,1017
2017-12-25T01:19:38.430Z,1017.04
2017-12-25T01:20:04.065Z,1017.05
2017-12-25T01:20:29.603Z,1017.02
2017-12-25T01:20:55.187Z,1017.05
2017-12-25T01:21:20.753Z,1017.02
2017-12-25T01:21:46.323Z,1017.02
2017-12-25T01:22:11.880Z,1016.98
2017-12-25T01:22:37.447Z,1017.03
2017-12-25T01:23:03.014Z,1016.98
2017-12-25T01:23:28.583Z,1016.96
2017-12-25T01:23:54.168Z,1016.96
2017-12-25T01:24:19.731Z,1017
2017-12-25T01:24:45.282Z,1016.95
2017-12-25T01:25:10.851Z,1016.95
2017-12-25T01:25:36.429Z,1017.04
2017-12-25T01:26:02.032Z,1017.02
2017-12-25T01:26:27.576Z,1016.99
2017-12-25T01:26:53.124Z,1016.92
2017-12-25T01:27:18.683Z,1016.98
2017-12-25T01:27:44.220Z,1016.98
2017-12-25T01:28:09.754Z,1016.93
2017-12-25T01:28:35.319Z,1016.97
2017-12-25T01:29:00.862Z,1016.93
2017-12-25T01:29:26.424Z,1016.95
2017-12-25T01:29:52.091Z,1016.97
2017-12-25T01:30:17.640Z,1016.95
2017-12-25T01:30:43.204Z,1016.99
2017-12-25T01:31:08.767Z,1017.02
2017-12-25T01:31:34.328Z,1017
2017-12-25T01:31:59.921Z,1017
2017-12-25T01:32:25.465Z,1017
2017-12-25T01:32:51.012Z,1016.91
2017-12-25T01:33:16.563Z,1016.97
2017-12-25T01:33:42.192Z,1016.99
2017-12-25T01:34:07.768Z,1017.02
2017-12-25T01:34:33.345Z,1017.05
2017-12-25T01:34:58.949Z,1017.07
2017-12-25T01:35:24.532Z,1016.99
2017-12-25T01:35:50.079Z,1017.01
2017-12-25T01:36:15.663Z,1017
2017-12-25T01:36:41.309Z,1017.05
2017-12-25T01:37:06.880Z,1016.99
2017-12-25T01:37:32.444Z,1017.01
2017-12-25T01:37:58.056Z,1016.98
2017-12-25T01:38:23.607Z,1016.98
2017-12-25T01:38:49.182Z,1017
2017-12-25T01:39:14.765Z,1017.03
2017-12-25T01:39:40.338Z,1017.03
2017-12-25T01:40:05.906Z,1016.97
2017-12-25T01:40:31.471Z,1017
2017-12-25T01:40:57.043Z,1016.97
2017-12-25T01:41:22.594Z,1017.04
2017-12-25T01:41:48.200Z,1016.92
2017-12-25T01:42:13.743Z,1016.99
2017-12-25T01:42:39.351Z,1017.01
2017-12-25T01:43:04.928Z,1017
2017-12-25T01:43:30.500Z,1016.98
2017-12-25T01:43:56.036Z,1017.01
2017-12-25T01:44:21.708Z,1016.96
2017-12-25T01:44:47.277Z,1017.03
2017-12-25T01:45:12.824Z,1016.94
2017-12-25T01:45:38.377Z,1016.98
2017-12-25T01:46:03.954Z,1016.98
2017-12-25T01:46:29.509Z,1016.97
2017-12-25T01:46:55.065Z,1017.02
2017-12-25T01:47:20.623Z,1017
2017-12-25T01:47:46.220Z,1016.95
2017-12-25T01:48:11.785Z,1017.05
2017-12-25T01:48:37.343Z,1017.02
2017-12-25T01:49:02.918Z,1016.99
2017-12-25T01:49:28.587Z,1017.02
2017-12-25T01:49:54.130Z,1016.97
2017-12-25T01:50:19.680Z,1017.04
2017-12-25T01:50:45.353Z,1017.04
2017-12-25T01:51:10.976Z,1017.04
2017-12-25T01:51:36.564Z,1017.04
2017-12-25T01:52:02.133Z,1017.07
2017-12-25T01:52:27.707Z,1017
2017-12-25T01:52:53.274Z,1017.03
2017-12-25T01:53:18.835Z,1017.04
2017-12-25T01:53:44.397Z,1017.1
2017-12-25T01:54:09.969Z,1017.04
2017-12-25T01:54:35.546Z,1017.02
2017-12-25T01:55:01.116Z,1017.07
2017-12-25T01:55:26.715Z,1017.07
2017-12-25T01:55:52.278Z,1017.06
2017-12-25T01:56:17.889Z,1016.97
2017-12-25T01:56:43.442Z,1017.01
2017-12-25T01:57:09.014Z,1017.02
2017-12-25T01:57:34.653Z,1017.01
2017-12-25T01:58:00.220Z,1017.05
2017-12-25T01:58:25.769Z,1017.03
2017-12-25T01:58:51.332Z,1017
2017-12-25T01:59:16.922Z,1016.99
2017-12-25T01:59:42.482Z,1017.06
2017-12-25T02:00:08.164Z,1017.01
2017-12-25T02:00:33.711Z,1016.99
2017-12-25T02:00:59.290Z,1017.03
2017-12-25T02:01:24.850Z,1017.05
2017-12-25T02:01:50.426Z,1016.99
2017-12-25T02:02:15.980Z,1017.06
2017-12-25T02:02:41.599Z,1017.03
2017-12-25T02:03:07.149Z,1017.08
2017-12-25T02:03:32.708Z,1017.03
2017-12-25T02:03:58.261Z,1017.01
2017-12-25T02:04:23.900Z,1017.07
2017-12-25T02:04:49.524Z,1017.04
2017-12-25T02:05:15.086Z,1017.05
2017-12-25T02:05:40.658Z,1017.1
2017-12-25T02:06:06.205Z,1017.04
2017-12-25T02:06:31.767Z,1017.07
2017-12-25T02:06:57.347Z,1017.09
2017-12-25T02:07:22.932Z,1017.1
2017-12-25T02:07:48.480Z,1017.06
2017-12-25T02:08:14.036Z,1017.1
2017-12-25T02:08:39.613Z,1017.07
2017-12-25T02:09:05.186Z,1017.08
2017-12-25T02:09:30.797Z,1017.06
2017-12-25T02:09:56.350Z,1017.09
2017-12-25T02:10:21.912Z,1017.02
2017-12-25T02:10:47.493Z,1017.1
2017-12-25T02:11:13.048Z,1017.04
2017-12-25T02:11:38.596Z,1017.05
2017-12-25T02:12:04.162Z,1017.03
2017-12-25T02:12:29.748Z,1017.02
2017-12-25T02:12:55.417Z,1016.97
2017-12-25T02:13:21.011Z,1016.95
2017-12-25T02:13:46.564Z,1016.93
2017-12-25T02:14:12.113Z,1016.99
2017-12-25T02:14:37.692Z,1016.99
2017-12-25T02:15:03.246Z,1016.97
2017-12-25T02:15:28.857Z,1016.96
2017-12-25T02:15:54.402Z,1017.03
2017-12-25T02:16:19.972Z,1016.97
2017-12-25T02:16:45.543Z,1017
2017-12-25T02:17:11.197Z,1017.01
2017-12-25T02:17:36.764Z,1016.98
2017-12-25T02:18:02.349Z,1017.01
2017-12-25T02:18:27.894Z,1016.97
2017-12-25T02:18:53.467Z,1017.01
2017-12-25T02:19:19.065Z,1016.99
2017-12-25T02:19:44.661Z,1016.97
2017-12-25T02:20:10.245Z,1016.94
2017-12-25T02:20:35.814Z,1016.9
2017-12-25T02:21:01.404Z,1016.96
2017-12-25T02:21:26.967Z,1016.97
2017-12-25T02:21:52.517Z,1016.98
2017-12-25T02:22:18.127Z,1016.95
2017-12-25T02:22:43.688Z,1017.01
2017-12-25T02:23:09.274Z,1016.91
2017-12-25T02:23:34.851Z,1016.97
2017-12-25T02:24:00.412Z,1016.94
2017-12-25T02:24:25.968Z,1016.97
2017-12-25T02:24:51.613Z,1016.94
2017-12-25T02:25:17.167Z,1016.94
2017-12-25T02:25:42.717Z,1016.91
2017-12-25T02:26:08.290Z,1016.94
2017-12-25T02:26:33.839Z,1016.97
2017-12-25T02:26:59.415Z,1016.89
2017-12-25T02:27:24.965Z,1016.93
2017-12-25T02:27:50.525Z,1016.93
2017-12-25T02:28:16.099Z,1016.93
2017-12-25T02:28:41.675Z,1016.93
2017-12-25T02:29:07.268Z,1016.94
2017-12-25T02:29:32.815Z,1016.85
2017-12-25T02:29:58.514Z,1016.81
2017-12-25T02:30:24.077Z,1016.8
2017-12-25T02:30:49.643Z,1016.83
2017-12-25T02:31:15.195Z,1016.8
2017-12-25T02:31:40.870Z,1016.84
2017-12-25T02:32:06.441Z,1016.8
2017-12-25T02:32:32.010Z,1016.86
2017-12-25T02:32:57.599Z,1016.81
2017-12-25T02:33:23.106Z,1016.79
2017-12-25T02:33:48.659Z,1016.8
2017-12-25T02:34:14.220Z,1016.76
2017-12-25T02:34:39.782Z,1016.76
2017-12-25T02:35:05.406Z,1016.78
2017-12-25T02:35:31.068Z,1016.76
2017-12-25T02:35:56.634Z,1016.75
2017-12-25T02:36:22.241Z,1016.77
2017-12-25T02:36:47.804Z,1016.73
2017-12-25T02:37:13.410Z,1016.76
2017-12-25T02:37:38.966Z,1016.82
2017-12-25T02:38:04.527Z,1016.71
2017-12-25T02:38:30.089Z,1016.77
2017-12-25T02:38:55.652Z,1016.75
2017-12-25T02:39:21.194Z,1016.69
2017-12-25T02:39:46.856Z,1016.75
2017-12-25T02:40:12.422Z,1016.77
2017-12-25T02:40:38.032Z,1016.67
2017-12-25T02:41:03.594Z,1016.68
2017-12-25T02:41:29.159Z,1016.64
2017-12-25T02:41:54.727Z,1016.62
2017-12-25T02:42:20.282Z,1016.64
2017-12-25T02:42:45.851Z,1016.68
2017-12-25T02:43:11.422Z,1016.68
2017-12-25T02:43:37.072Z,1016.71
2017-12-25T02:44:02.615Z,1016.67
2017-12-25T02:44:28.177Z,1016.65
2017-12-25T02:44:53.730Z,1016.61
2017-12-25T02:45:19.294Z,1016.53
2017-12-25T02:45:44.847Z,1016.6
2017-12-25T02:46:10.409Z,1016.56
2017-12-25T02:46:35.940Z,1016.59
2017-12-25T02:47:01.576Z,1016.62
2017-12-25T02:47:27.179Z,1016.58
2017-12-25T02:47:52.749Z,1016.67
2017-12-25T02:48:18.340Z,1016.55
2017-12-25T02:48:43.978Z,1016.58
2017-12-25T02:49:09.539Z,1016.51
2017-12-25T02:49:35.085Z,1016.62
2017-12-25T02:50:00.730Z,1016.53
2017-12-25T02:50:26.324Z,1016.6
2017-12-25T02:50:51.878Z,1016.56
2017-12-25T02:51:17.434Z,1016.57
2017-12-25T02:51:43.007Z,1016.63
2017-12-25T02:52:08.558Z,1016.59
2017-12-25T02:52:34.097Z,1016.57
2017-12-25T02:52:59.639Z,1016.57
2017-12-25T02:53:25.234Z,1016.56
2017-12-25T02:53:50.857Z,1016.59
2017-12-25T02:54:16.431Z,1016.54
2017-12-25T02:54:41.967Z,1016.51
2017-12-25T02:55:07.572Z,1016.51
2017-12-25T02:55:33.145Z,1016.53
2017-12-25T02:55:58.696Z,1016.49
2017-12-25T02:56:24.249Z,1016.55
2017-12-25T02:56:49.817Z,1016.54
2017-12-25T02:57:15.375Z,1016.49
2017-12-25T02:57:41.007Z,1016.52
2017-12-25T02:58:06.558Z,1016.49
2017-12-25T02:58:32.138Z,1016.46
2017-12-25T02:58:57.728Z,1016.43
2017-12-25T02:59:23.298Z,1016.4
2017-12-25T02:59:48.849Z,1016.44
2017-12-25T03:00:14.527Z,1016.4
2017-12-25T03:00:40.093Z,1016.38
2017-12-25T03:01:05.638Z,1016.43
2017-12-25T03:01:31.195Z,1016.37
2017-12-25T03:01:56.764Z,1016.4
2017-12-25T03:02:22.354Z,1016.4
2017-12-25T03:02:47.976Z,1016.39
2017-12-25T03:03:13.674Z,1016.38
2017-12-25T03:03:39.242Z,1016.34
2017-12-25T03:04:04.826Z,1016.3
2017-12-25T03:04:30.376Z,1016.29
2017-12-25T03:04:55.940Z,1016.34
2017-12-25T03:05:21.497Z,1016.33
2017-12-25T03:05:47.154Z,1016.32
2017-12-25T03:06:12.722Z,1016.4
2017-12-25T03:06:38.287Z,1016.36
2017-12-25T03:07:03.842Z,1016.34
2017-12-25T03:07:29.407Z,1016.34
2017-12-25T03:07:54.961Z,1016.33
2017-12-25T03:08:20.596Z,1016.39
2017-12-25T03:08:46.150Z,1016.38
2017-12-25T03:09:11.773Z,1016.45
2017-12-25T03:09:37.256Z,1016.41
2017-12-25T03:10:02.828Z,1016.38
2017-12-25T03:10:28.400Z,1016.4
2017-12-25T03:10:53.983Z,1016.39
2017-12-25T03:11:19.549Z,1016.42
2017-12-25T03:11:45.121Z,1016.48
2017-12-25T03:12:10.717Z,1016.44
2017-12-25T03:12:36.266Z,1016.41
2017-12-25T03:13:01.826Z,1016.46
2017-12-25T03:13:27.421Z,1016.45
2017-12-25T03:13:53.012Z,1016.42
2017-12-25T03:14:18.577Z,1016.37
2017-12-25T03:14:44.127Z,1016.47
2017-12-25T03:15:09.800Z,1016.44
2017-12-25T03:15:35.353Z,1016.43
2017-12-25T03:16:00.933Z,1016.42
2017-12-25T03:16:26.593Z,1016.42
2017-12-25T03:16:52.184Z,1016.43
2017-12-25T03:17:17.725Z,1016.42
2017-12-25T03:17:43.306Z,1016.42
2017-12-25T03:18:08.859Z,1016.43
2017-12-25T03:18:34.426Z,1016.42
2017-12-25T03:18:59.983Z,1016.36
2017-12-25T03:19:25.534Z,1016.41
2017-12-25T03:19:51.086Z,1016.39
2017-12-25T03:20:16.693Z,1016.45
2017-12-25T03:20:42.265Z,1016.41
2017-12-25T03:21:07.848Z,1016.41
2017-12-25T03:21:33.408Z,1016.44
2017-12-25T03:21:58.958Z,1016.4
2017-12-25T03:22:24.536Z,1016.43
2017-12-25T03:22:50.096Z,1016.39
2017-12-25T03:23:15.640Z,1016.42
2017-12-25T03:23:41.294Z,1016.43
2017-12-25T03:24:06.837Z,1016.42
2017-12-25T03:24:32.385Z,1016.42
2017-12-25T03:24:57.994Z,1016.44
2017-12-25T03:25:23.562Z,1016.41
2017-12-25T03:25:49.137Z,1016.37
2017-12-25T03:26:14.695Z,1016.41
2017-12-25T03:26:40.394Z,1016.46
2017-12-25T03:27:05.952Z,1016.43
2017-12-25T03:27:31.514Z,1016.44
2017-12-25T03:27:57.066Z,1016.35
2017-12-25T03:28:22.647Z,1016.37
2017-12-25T03:28:48.217Z,1016.45
2017-12-25T03:29:13.816Z,1016.37
2017-12-25T03:29:39.377Z,1016.45
2017-12-25T03:30:04.933Z,1016.46
2017-12-25T03:30:30.524Z,1016.35
2017-12-25T03:30:56.105Z,1016.38
2017-12-25T03:31:21.672Z,1016.33
2017-12-25T03:31:47.223Z,1016.33
2017-12-25T03:32:12.777Z,1016.42
2017-12-25T03:32:38.328Z,1016.44
2017-12-25T03:33:04.010Z,1016.44
2017-12-25T03:33:29.583Z,1016.42
2017-12-25T03:33:55.143Z,1016.35
2017-12-25T03:34:20.767Z,1016.44
2017-12-25T03:34:46.409Z,1016.39
2017-12-25T03:35:11.991Z,1016.36
2017-12-25T03:35:37.540Z,1016.4
2017-12-25T03:36:03.179Z,1016.35
2017-12-25T03:36:28.721Z,1016.34
2017-12-25T03:36:54.281Z,1016.42
2017-12-25T03:37:19.881Z,1016.43
2017-12-25T03:37:45.442Z,1016.4
2017-12-25T03:38:11.006Z,1016.38
2017-12-25T03:38:36.593Z,1016.38
2017-12-25T03:39:02.171Z,1016.36
2017-12-25T03:39:27.721Z,1016.35
2017-12-25T03:39:53.313Z,1016.38
2017-12-25T03:40:18.840Z,1016.42
2017-12-25T03:40:44.385Z,1016.39
2017-12-25T03:41:09.939Z,1016.37
2017-12-25T03:41:35.507Z,1016.37
2017-12-25T03:42:01.077Z,1016.36
2017-12-25T03:42:26.691Z,1016.34
2017-12-25T03:42:52.391Z,1016.38
2017-12-25T03:43:17.945Z,1016.38
2017-12-25T03:43:43.567Z,1016.37
2017-12-25T03:44:09.118Z,1016.33
2017-12-25T03:44:34.672Z,1016.37
2017-12-25T03:45:00.225Z,1016.37
2017-12-25T03:45:25.821Z,1016.39
2017-12-25T03:45:51.401Z,1016.41
2017-12-25T03:46:17.014Z,1016.34
2017-12-25T03:46:42.563Z,1016.33
2017-12-25T03:47:08.115Z,1016.26
2017-12-25T03:47:33.662Z,1016.26
2017-12-25T03:47:59.223Z,1016.26
2017-12-25T03:48:24.799Z,1016.28
2017-12-25T03:48:50.394Z,1016.27
2017-12-25T03:49:16.008Z,1016.31
2017-12-25T03:49:41.571Z,1016.31
2017-12-25T03:50:07.119Z,1016.32
2017-12-25T03:50:32.694Z,1016.31
2017-12-25T03:50:58.244Z,1016.28
2017-12-25T03:51:23.789Z,1016.33
2017-12-25T03:51:49.381Z,1016.32
2017-12-25T03:52:14.951Z,1016.27
2017-12-25T03:52:40.555Z,1016.26
2017-12-25T03:53:06.203Z,1016.25
2017-12-25T03:53:31.775Z,1016.35
2017-12-25T03:53:57.351Z,1016.32
2017-12-25T03:54:22.985Z,1016.34
2017-12-25T03:54:48.540Z,1016.33
2017-12-25T03:55:14.106Z,1016.3
2017-12-25T03:55:39.676Z,1016.26
2017-12-25T03:56:05.250Z,1016.3
2017-12-25T03:56:30.809Z,1016.31
2017-12-25T03:56:56.401Z,1016.27
2017-12-25T03:57:21.965Z,1016.24
2017-12-25T03:57:47.521Z,1016.3
2017-12-25T03:58:13.104Z,1016.3
2017-12-25T03:58:38.664Z,1016.25
2017-12-25T03:59:04.229Z,1016.23
2017-12-25T03:59:29.847Z,1016.23
2017-12-25T03:59:55.345Z,1016.23
2017-12-25T04:00:20.921Z,1016.24
2017-12-25T04:00:46.660Z,1016.21
2017-12-25T04:01:12.233Z,1016.32
2017-12-25T04:01:37.828Z,1016.31
2017-12-25T04:02:03.360Z,1016.21
2017-12-25T04:02:28.918Z,1016.24
2017-12-25T04:02:54.505Z,1016.24
2017-12-25T04:03:20.050Z,1016.23
2017-12-25T04:03:45.601Z,1016.26
2017-12-25T04:04:11.169Z,1016.19
2017-12-25T04:04:36.768Z,1016.22
2017-12-25T04:05:02.444Z,1016.27
2017-12-25T04:05:28.014Z,1016.3
2017-12-25T04:05:53.572Z,1016.25
2017-12-25T04:06:19.129Z,1016.28
2017-12-25T04:06:44.693Z,1016.29
2017-12-25T04:07:10.289Z,1016.26
2017-12-25T04:07:35.842Z,1016.29
2017-12-25T04:08:01.389Z,1016.26
2017-12-25T04:08:26.950Z,1016.27
2017-12-25T04:08:52.520Z,1016.25
2017-12-25T04:09:18.088Z,1016.26
2017-12-25T04:09:43.706Z,1016.25
2017-12-25T04:10:09.352Z,1016.24
2017-12-25T04:10:34.915Z,1016.22
2017-12-25T04:11:00.500Z,1016.26
2017-12-25T04:11:26.102Z,1016.19
2017-12-25T04:11:51.665Z,1016.18
2017-12-25T04:12:17.234Z,1016.18
2017-12-25T04:12:42.786Z,1016.23
2017-12-25T04:13:08.347Z,1016.21
2017-12-25T04:13:33.907Z,1016.23
2017-12-25T04:13:59.471Z,1016.22
2017-12-25T04:14:25.043Z,1016.22
2017-12-25T04:14:50.588Z,1016.23
2017-12-25T04:15:16.164Z,1016.23
2017-12-25T04:15:41.763Z,1016.21
2017-12-25T04:16:07.325Z,1016.17
2017-12-25T04:16:32.930Z,1016.16
2017-12-25T04:16:58.487Z,1016.23
2017-12-25T04:17:24.089Z,1016.17
2017-12-25T04:17:49.634Z,1016.18
2017-12-25T04:18:15.307Z,1016.21
2017-12-25T04:18:40.890Z,1016.15
2017-12-25T04:19:06.452Z,1016.21
2017-12-25T04:19:31.994Z,1016.21
2017-12-25T04:19:57.565Z,1016.15
2017-12-25T04:20:23.122Z,1016.19
2017-12-25T04:20:48.653Z,1016.11
2017-12-25T04:21:14.239Z,1016.11
2017-12-25T04:21:39.963Z,1016.15
2017-12-25T04:22:05.524Z,1016.15
2017-12-25T04:22:31.125Z,1016.12
2017-12-25T04:22:56.688Z,1016.1
2017-12-25T04:23:22.245Z,1016.09
2017-12-25T04:23:47.791Z,1016.08
2017-12-25T04:24:13.367Z,1016.1
2017-12-25T04:24:38.929Z,1016.07
2017-12-25T04:25:04.491Z,1016.04
2017-12-25T04:25:30.055Z,1016.09
2017-12-25T04:25:55.624Z,1016.06
2017-12-25T04:26:21.187Z,1016.02
2017-12-25T04:26:46.740Z,1016.03
2017-12-25T04:27:12.308Z,1016.08
2017-12-25T04:27:37.881Z,1016.05
2017-12-25T04:28:03.489Z,1016.03
2017-12-25T04:28:29.049Z,1016.04
2017-12-25T04:28:54.664Z,1016.04
2017-12-25T04:29:20.279Z,1016.1
2017-12-25T04:29:45.955Z,1016.06
2017-12-25T04:30:11.542Z,1016.04
2017-12-25T04:30:37.115Z,1016.1
2017-12-25T04:31:02.669Z,1016.03
2017-12-25T04:31:28.227Z,1015.97
2017-12-25T04:31:53.794Z,1016.04
2017-12-25T04:32:19.342Z,1016.02
2017-12-25T04:32:44.894Z,1016.06
2017-12-25T04:33:10.455Z,1015.98
2017-12-25T04:33:36.060Z,1016.03
2017-12-25T04:34:01.634Z,1015.99
2017-12-25T04:34:27.180Z,1016.05
2017-12-25T04:34:52.794Z,1016.05
2017-12-25T04:35:18.382Z,1016.05
2017-12-25T04:35:43.939Z,1016.03
2017-12-25T04:36:09.495Z,1016.07
2017-12-25T04:36:35.063Z,1016.06
2017-12-25T04:37:00.603Z,1016.07
2017-12-25T04:37:26.199Z,1016.08
2017-12-25T04:37:51.772Z,1016.11
2017-12-25T04:38:17.331Z,1016.06
2017-12-25T04:38:42.876Z,1016.04
2017-12-25T04:39:08.546Z,1016.03
2017-12-25T04:39:34.123Z,1016.02
2017-12-25T04:39:59.758Z,1016.05
2017-12-25T04:40:25.300Z,1016.04
2017-12-25T04:40:50.860Z,1016.01
2017-12-25T04:41:16.430Z,1015.95
2017-12-25T04:41:41.981Z,1016
2017-12-25T04:42:07.523Z,1016.02
2017-12-25T04:42:33.124Z,1015.99
2017-12-25T04:42:58.807Z,1015.95
2017-12-25T04:43:24.366Z,1016
2017-12-25T04:43:49.906Z,1016.01
2017-12-25T04:44:15.464Z,1016
2017-12-25T04:44:41.035Z,1016.02
2017-12-25T04:45:06.678Z,1015.98
2017-12-25T04:45:32.300Z,1015.91
2017-12-25T04:45:57.857Z,1015.96
2017-12-25T04:46:23.422Z,1015.98
2017-12-25T04:46:48.975Z,1015.95
2017-12-25T04:47:14.522Z,1015.97
2017-12-25T04:47:40.128Z,1015.96
2017-12-25T04:48:05.772Z,1015.97
2017-12-25T04:48:31.397Z,1015.93
2017-12-25T04:48:56.961Z,1016
2017-12-25T04:49:22.551Z,1015.96
2017-12-25T04:49:48.113Z,1015.93
2017-12-25T04:50:13.671Z,1015.97
2017-12-25T04:50:39.214Z,1015.95
2017-12-25T04:51:04.761Z,1015.96
2017-12-25T04:51:30.344Z,1015.98
2017-12-25T04:51:55.970Z,1015.89
2017-12-25T04:52:21.545Z,1015.93
2017-12-25T04:52:47.084Z,1015.94
2017-12-25T04:53:12.660Z,1015.95
2017-12-25T04:53:38.233Z,1015.94
2017-12-25T04:54:03.791Z,1015.95
2017-12-25T04:54:29.459Z,1015.92
2017-12-25T04:54:55.014Z,1015.97
2017-12-25T04:55:20.581Z,1015.88
2017-12-25T04:55:46.114Z,1015.87
2017-12-25T04:56:11.680Z,1015.94
2017-12-25T04:56:37.237Z,1015.9
2017-12-25T04:57:02.793Z,1015.93
2017-12-25T04:57:28.360Z,1015.91
2017-12-25T04:57:53.903Z,1015.89
2017-12-25T04:58:19.462Z,1015.88
2017-12-25T04:58:45.045Z,1015.89
2017-12-25T04:59:10.615Z,1015.88
2017-12-25T04:59:36.313Z,1015.88
2017-12-25T05:00:01.962Z,1015.84
2017-12-25T05:00:27.535Z,1015.82
2017-12-25T05:00:53.091Z,1015.87
2017-12-25T05:01:18.722Z,1015.85
2017-12-25T05:01:44.271Z,1015.84
2017-12-25T05:02:09.862Z,1015.85
2017-12-25T05:02:35.448Z,1015.84
2017-12-25T05:03:01.011Z,1015.85
2017-12-25T05:03:26.568Z,1015.88
2017-12-25T05:03:53.030Z,1015.88
2017-12-25T05:04:18.572Z,1015.91
2017-12-25T05:04:44.131Z,1015.85
2017-12-25T05:05:09.696Z,1015.84
2017-12-25T05:05:35.229Z,1015.82
2017-12-25T05:06:00.807Z,1015.86
2017-12-25T05:06:26.348Z,1015.83
2017-12-25T05:06:51.947Z,1015.82
2017-12-25T05:07:17.510Z,1015.82
2017-12-25T05:07:43.086Z,1015.82
2017-12-25T05:08:08.653Z,1015.79
2017-12-25T05:08:34.178Z,1015.84
2017-12-25T05:08:59.772Z,1015.82
2017-12-25T05:09:25.468Z,1015.8
2017-12-25T05:09:51.042Z,1015.79
2017-12-25T05:10:16.621Z,1015.81
2017-12-25T05:11:31.153Z,1015.76
2017-12-25T05:11:56.723Z,1015.75
2017-12-25T05:12:22.322Z,1015.81
2017-12-25T05:12:47.902Z,1015.72